CYXH

Medicine Hat Airport

Medicine Hat, Alberta, Canada
METAR CYXH 241100Z AUTO 26004KT 250V310 9SM OVC060 04/03 A2996 RMK SLP162
Observed Flight Rules
Sep-24 @ 11:00 UTC (34 minutes ago) Visual Flight Rules
Wind Visibility Clouds
260° at 4 knots 9 miles
  • Overcast at 6,000' AGL
Temperatures Readings
Current 4°C / 39°F
Dewpoint 3°C / 37°F
Humidity 93%
Altimeter 29.96" Hg
Pressure 1016.2 hPa
Elevation 716
METAR CYXH 241100Z AUTO 26004KT 250V310 9SM OVC060 04/03 A2996 RMK SLP162
Observed Flight Rules
Sep-24 @ 11:00 UTC
(34 minutes ago)
VFR
Wind Visibility
260° at 4 knots 9 miles
Clouds
  • Overcast at 6,000' AGL
Temperature Dewpoint
4°C / 39°F 3°C / 37°F
Humidity Altimeter Pressure
93% 29.96" Hg 1016.2 hPa